Time;durP1;ratioP1;P1;durP2;ratioP2;P2;SDS_P1;SDS_P2;PMS_P1;PMS_P2;Temp;Humidity;BMP_temperature;BMP_pressure;BME280_temperature;BME280_humidity;BME280_pressure;Samples;Min_cycle;Max_cycle;Signal;HPM_P1;HPM_P2
2022/07/31 00:02:20;;;;;;;3.95;1.92;;;19.70;99.90;;;;;;5071925;28;20107;-60
2022/07/31 00:04:45;;;;;;;2.30;1.75;;;19.60;99.90;;;;;;5071660;28;20025;-61
2022/07/31 00:07:11;;;;;;;3.65;1.63;;;19.60;99.90;;;;;;5071957;28;20025;-59
2022/07/31 00:09:37;;;;;;;2.85;2.35;;;19.60;99.90;;;;;;5072093;28;20449;-59
2022/07/31 00:12:03;;;;;;;4.07;2.30;;;19.50;99.90;;;;;;5071387;28;20033;-59
2022/07/31 00:14:32;;;;;;;3.75;2.15;;;19.40;99.90;;;;;;5071870;28;20024;-59
2022/07/31 00:16:58;;;;;;;3.38;2.20;;;19.30;99.90;;;;;;5071713;28;20024;-59
2022/07/31 00:19:23;;;;;;;2.33;2.05;;;19.30;99.90;;;;;;5071795;28;20108;-59
2022/07/31 00:21:57;;;;;;;4.93;2.47;;;19.20;99.90;;;;;;5071596;28;20021;-59
2022/07/31 00:24:23;;;;;;;4.85;2.28;;;19.30;99.90;;;;;;5071628;28;20036;-59
2022/07/31 00:26:49;;;;;;;4.07;2.20;;;19.20;99.90;;;;;;5071322;28;20043;-59
2022/07/31 00:29:15;;;;;;;4.90;2.22;;;19.20;99.90;;;;;;5071719;28;20451;-59
2022/07/31 00:31:40;;;;;;;2.55;1.83;;;19.10;99.90;;;;;;5071408;28;20029;-59
2022/07/31 00:34:06;;;;;;;3.50;2.30;;;19.20;99.90;;;;;;5071547;28;20067;-59
2022/07/31 00:36:32;;;;;;;2.90;2.10;;;19.20;99.90;;;;;;5071446;28;20032;-59
2022/07/31 00:38:57;;;;;;;3.60;1.95;;;19.10;99.90;;;;;;5071346;28;20070;-59
2022/07/31 00:41:23;;;;;;;6.18;2.40;;;19.10;99.90;;;;;;5071132;28;20027;-59
2022/07/31 00:43:49;;;;;;;3.22;2.22;;;19.10;99.90;;;;;;5071503;28;20377;-59
2022/07/31 00:46:15;;;;;;;3.88;1.90;;;19.10;99.90;;;;;;5071092;28;20032;-59
2022/07/31 00:48:40;;;;;;;2.97;1.98;;;19.00;99.90;;;;;;5071569;28;20066;-59
2022/07/31 00:51:06;;;;;;;2.88;2.40;;;18.90;99.90;;;;;;5071288;28;20025;-59
2022/07/31 00:53:32;;;;;;;4.10;2.40;;;18.80;99.90;;;;;;5069865;28;20024;-59
2022/07/31 00:55:57;;;;;;;3.35;2.30;;;18.60;99.90;;;;;;5070972;28;20056;-58
2022/07/31 00:58:23;;;;;;;4.00;2.60;;;18.60;99.90;;;;;;5071124;28;20081;-59
2022/07/31 01:00:49;;;;;;;2.60;2.33;;;18.60;99.90;;;;;;5071196;28;20058;-59
2022/07/31 01:03:15;;;;;;;4.70;2.45;;;18.60;99.90;;;;;;5071171;28;20362;-59
2022/07/31 01:05:41;;;;;;;4.72;3.00;;;18.70;99.90;;;;;;5071401;28;20024;-59
2022/07/31 01:08:06;;;;;;;4.05;2.70;;;18.60;99.90;;;;;;5071242;28;20029;-59
2022/07/31 01:10:38;;;;;;;3.25;2.65;;;18.50;99.90;;;;;;5070914;28;20029;-59
2022/07/31 01:13:09;;;;;;;3.88;2.80;;;18.40;99.90;;;;;;5070941;28;20435;-60
2022/07/31 01:15:36;;;;;;;3.28;2.50;;;18.50;99.90;;;;;;5071020;28;20037;-59
2022/07/31 01:18:03;;;;;;;4.07;2.88;;;18.40;99.90;;;;;;5071157;28;20023;-59
2022/07/31 01:20:31;;;;;;;5.20;2.42;;;18.40;99.90;;;;;;5070795;28;20145;-59
2022/07/31 01:23:20;;;;;;;4.78;2.38;;;18.40;99.90;;;;;;5070892;28;20025;-59
2022/07/31 01:25:52;;;;;;;2.80;2.55;;;18.40;99.90;;;;;;5070726;28;20508;-59
2022/07/31 01:28:33;;;;;;;5.20;2.70;;;18.40;99.90;;;;;;5070914;28;20078;-59
2022/07/31 01:31:07;;;;;;;3.28;2.63;;;18.40;99.90;;;;;;5069390;28;20045;-59
2022/07/31 01:33:45;;;;;;;3.70;2.45;;;18.30;99.90;;;;;;5070845;28;20024;-59
2022/07/31 01:36:18;;;;;;;3.13;2.83;;;18.30;99.90;;;;;;5070714;28;20036;-59
2022/07/31 01:38:47;;;;;;;4.30;2.80;;;18.30;99.90;;;;;;5070962;28;20028;-59
2022/07/31 01:41:15;;;;;;;4.05;3.17;;;18.30;99.90;;;;;;5070747;28;20107;-59
2022/07/31 01:43:45;;;;;;;5.35;2.97;;;18.20;99.90;;;;;;5069576;28;20082;-59
2022/07/31 01:46:14;;;;;;;3.55;2.95;;;18.30;99.90;;;;;;5070506;28;20035;-59
2022/07/31 01:48:41;;;;;;;4.68;2.83;;;18.30;99.90;;;;;;5069401;28;20374;-59
2022/07/31 01:51:09;;;;;;;5.28;3.22;;;18.30;99.90;;;;;;5070593;28;20556;-59
2022/07/31 01:53:37;;;;;;;6.75;3.10;;;18.30;99.90;;;;;;5070610;28;20557;-58
2022/07/31 01:56:04;;;;;;;3.63;3.15;;;18.20;99.90;;;;;;5070831;28;20384;-60
2022/07/31 01:58:38;;;;;;;3.47;2.80;;;18.20;99.90;;;;;;5070820;28;20055;-59
2022/07/31 02:01:07;;;;;;;6.95;2.97;;;18.20;99.90;;;;;;5070308;28;20107;-59
2022/07/31 02:03:35;;;;;;;3.90;3.05;;;18.10;99.90;;;;;;5070543;28;20024;-59
2022/07/31 02:06:02;;;;;;;4.80;3.20;;;18.10;99.90;;;;;;5070578;28;20056;-59
2022/07/31 02:08:30;;;;;;;5.97;3.30;;;18.10;99.90;;;;;;5071749;28;20020;-59
2022/07/31 02:10:57;;;;;;;5.07;2.90;;;18.10;99.90;;;;;;5073866;28;20405;-59
2022/07/31 02:13:25;;;;;;;4.43;2.90;;;18.20;99.90;;;;;;5074104;28;20121;-59
2022/07/31 02:15:52;;;;;;;3.60;2.95;;;18.10;99.90;;;;;;5074030;28;20025;-59
2022/07/31 02:18:19;;;;;;;6.75;3.10;;;18.10;99.90;;;;;;5074042;28;20024;-59
2022/07/31 02:20:47;;;;;;;4.28;3.03;;;18.00;99.90;;;;;;5074006;28;20094;-58
2022/07/31 02:23:14;;;;;;;3.80;3.00;;;18.10;99.90;;;;;;5074143;28;20496;-63
2022/07/31 02:25:41;;;;;;;5.18;3.28;;;18.10;99.90;;;;;;5073739;28;20021;-58
2022/07/31 02:28:09;;;;;;;3.88;3.30;;;18.00;99.90;;;;;;5073987;28;20054;-58
2022/07/31 02:30:39;;;;;;;3.92;2.97;;;18.00;99.90;;;;;;5073971;28;20029;-58
2022/07/31 02:33:10;;;;;;;5.28;2.85;;;18.10;99.90;;;;;;5073532;28;20043;-58
2022/07/31 02:35:37;;;;;;;4.90;3.15;;;18.10;99.90;;;;;;5072416;28;20033;-58
2022/07/31 02:38:04;;;;;;;3.67;2.80;;;18.00;99.90;;;;;;5073913;28;20421;-58
2022/07/31 02:40:29;;;;;;;5.50;3.22;;;18.00;99.90;;;;;;5073290;28;20032;-58
2022/07/31 02:42:55;;;;;;;4.93;2.83;;;18.10;99.90;;;;;;5073711;28;20104;-58
2022/07/31 02:45:22;;;;;;;4.03;3.05;;;18.00;99.90;;;;;;5073244;28;20136;-58
2022/07/31 02:47:47;;;;;;;3.35;2.85;;;18.10;99.90;;;;;;5073479;28;20021;-58
2022/07/31 02:50:15;;;;;;;3.35;2.70;;;18.00;99.90;;;;;;5073510;28;20495;-61
2022/07/31 02:52:42;;;;;;;3.20;2.92;;;18.00;99.90;;;;;;5073383;28;20366;-58
2022/07/31 02:55:09;;;;;;;4.65;3.10;;;17.90;99.90;;;;;;5073286;28;20041;-59
2022/07/31 02:57:34;;;;;;;4.22;2.92;;;17.90;99.90;;;;;;5073356;28;20048;-59
2022/07/31 03:00:00;;;;;;;3.20;2.78;;;17.90;99.90;;;;;;5073303;28;20033;-59
2022/07/31 03:02:28;;;;;;;5.30;3.03;;;17.90;99.90;;;;;;5072070;28;20049;-59
2022/07/31 03:04:54;;;;;;;3.50;3.10;;;17.90;99.90;;;;;;5073340;28;20020;-59
2022/07/31 03:07:19;;;;;;;4.82;3.40;;;18.00;99.90;;;;;;5072985;28;20033;-59
2022/07/31 03:09:46;;;;;;;4.40;3.67;;;18.00;99.90;;;;;;5073405;28;20031;-59
2022/07/31 03:12:12;;;;;;;6.80;3.50;;;18.00;99.90;;;;;;5071696;28;20097;-58
2022/07/31 03:14:38;;;;;;;3.75;3.10;;;18.00;99.90;;;;;;5072821;28;20040;-59
2022/07/31 03:17:05;;;;;;;4.22;3.35;;;17.90;99.90;;;;;;5073355;28;20024;-59
2022/07/31 03:19:32;;;;;;;5.85;3.35;;;17.90;99.90;;;;;;5072586;28;20048;-59
2022/07/31 03:21:58;;;;;;;5.63;3.42;;;17.80;99.90;;;;;;5072355;28;20036;-59
2022/07/31 03:24:25;;;;;;;6.45;3.50;;;17.80;99.90;;;;;;5072957;28;20494;-57
2022/07/31 03:26:51;;;;;;;4.65;3.67;;;17.80;99.90;;;;;;5072358;28;20025;-58
2022/07/31 03:29:17;;;;;;;3.45;3.13;;;17.80;99.90;;;;;;5072877;28;20371;-59
2022/07/31 03:31:43;;;;;;;5.55;3.97;;;17.80;99.90;;;;;;5072705;28;20033;-58
2022/07/31 03:34:10;;;;;;;7.13;3.28;;;17.80;99.90;;;;;;5072240;28;20027;-58
2022/07/31 03:36:36;;;;;;;4.53;3.40;;;17.80;99.90;;;;;;5072383;28;20032;-58
2022/07/31 03:39:02;;;;;;;4.32;3.70;;;17.80;99.90;;;;;;5072324;28;20036;-59
2022/07/31 03:41:27;;;;;;;5.63;3.47;;;17.80;99.90;;;;;;5072233;28;20021;-58
2022/07/31 03:43:53;;;;;;;4.90;3.70;;;17.80;99.90;;;;;;5072460;28;20050;-58
2022/07/31 03:46:20;;;;;;;5.75;3.42;;;17.90;99.90;;;;;;5072235;28;20020;-58
2022/07/31 03:48:47;;;;;;;4.57;3.35;;;17.80;99.90;;;;;;5072271;28;20028;-58
2022/07/31 03:51:14;;;;;;;4.85;3.67;;;17.80;99.90;;;;;;5072053;28;20102;-58
2022/07/31 03:53:41;;;;;;;4.35;3.20;;;17.80;99.90;;;;;;5072134;28;20021;-58
2022/07/31 03:56:07;;;;;;;5.93;3.70;;;17.80;99.90;;;;;;5072041;28;20099;-58
2022/07/31 03:58:33;;;;;;;7.28;3.67;;;17.80;99.90;;;;;;5071991;28;20128;-58
2022/07/31 04:00:59;;;;;;;5.63;3.72;;;17.80;99.90;;;;;;5071983;28;20017;-58
2022/07/31 04:03:30;;;;;;;7.45;3.53;;;17.80;99.90;;;;;;5072119;28;20020;-59
2022/07/31 04:05:55;;;;;;;7.82;3.45;;;17.90;99.90;;;;;;5070594;28;20154;-58
2022/07/31 04:08:21;;;;;;;5.93;3.60;;;17.90;99.90;;;;;;5071852;28;20054;-59
2022/07/31 04:10:47;;;;;;;6.28;3.42;;;17.90;99.90;;;;;;5071792;28;20059;-58
2022/07/31 04:13:12;;;;;;;6.18;3.60;;;17.90;99.90;;;;;;5071860;28;20107;-58
2022/07/31 04:15:38;;;;;;;7.28;3.35;;;17.90;99.90;;;;;;5071647;28;20062;-59
2022/07/31 04:18:03;;;;;;;7.47;3.63;;;17.90;99.90;;;;;;5071668;28;20024;-59
2022/07/31 04:20:29;;;;;;;4.53;3.40;;;17.90;99.90;;;;;;5071605;28;20035;-59
2022/07/31 04:22:54;;;;;;;5.97;3.60;;;17.90;99.90;;;;;;5071651;28;20031;-58
2022/07/31 04:25:20;;;;;;;9.18;3.78;;;17.90;99.90;;;;;;5071556;28;20490;-59
2022/07/31 04:27:46;;;;;;;5.03;3.40;;;18.00;99.90;;;;;;5071725;28;20107;-58
2022/07/31 04:30:11;;;;;;;7.18;3.55;;;18.00;99.90;;;;;;5071614;28;20389;-58
2022/07/31 04:32:37;;;;;;;4.97;3.45;;;18.10;99.90;;;;;;5071017;28;20044;-58
2022/07/31 04:35:04;;;;;;;6.72;3.90;;;18.10;99.90;;;;;;5071439;28;20182;-58
2022/07/31 04:37:31;;;;;;;7.63;4.15;;;18.00;99.90;;;;;;5071584;28;20028;-58
2022/07/31 04:39:57;;;;;;;5.85;4.10;;;18.00;99.90;;;;;;5071487;28;20028;-59
2022/07/31 04:42:22;;;;;;;5.18;3.45;;;18.00;99.90;;;;;;5071768;28;20093;-59
2022/07/31 04:44:48;;;;;;;10.18;4.22;;;18.00;99.90;;;;;;5071564;28;20074;-59
2022/07/31 04:47:14;;;;;;;5.38;4.03;;;18.00;99.90;;;;;;5071188;28;20024;-59
2022/07/31 04:49:39;;;;;;;6.32;3.90;;;18.00;99.90;;;;;;5072441;28;20028;-59
2022/07/31 04:52:05;;;;;;;4.57;4.10;;;18.00;99.90;;;;;;5071291;28;20032;-58
2022/07/31 04:54:32;;;;;;;7.78;3.90;;;18.10;99.90;;;;;;5071522;28;20036;-58
2022/07/31 04:56:57;;;;;;;7.47;4.40;;;18.10;99.90;;;;;;5071461;28;20541;-58
2022/07/31 04:59:23;;;;;;;5.40;3.90;;;18.10;99.90;;;;;;5071214;28;20051;-58
2022/07/31 05:01:49;;;;;;;6.53;4.38;;;18.10;99.90;;;;;;5071205;28;20108;-58
2022/07/31 05:04:16;;;;;;;6.25;4.45;;;18.10;99.90;;;;;;5070982;28;20474;-58
2022/07/31 05:06:44;;;;;;;7.32;4.65;;;18.10;99.90;;;;;;5071099;28;20054;-59
2022/07/31 05:09:12;;;;;;;6.35;4.55;;;18.10;99.90;;;;;;5071169;28;20107;-59
2022/07/31 05:11:39;;;;;;;6.95;4.20;;;18.10;99.90;;;;;;5071195;28;20047;-58
2022/07/31 05:14:08;;;;;;;7.05;4.63;;;18.20;99.90;;;;;;5071011;28;20074;-59
2022/07/31 05:16:34;;;;;;;8.77;5.10;;;18.20;99.90;;;;;;5071142;28;20574;-59
2022/07/31 05:19:01;;;;;;;9.23;4.70;;;18.10;99.90;;;;;;5071412;28;20081;-59
2022/07/31 05:21:29;;;;;;;6.60;5.00;;;18.10;99.90;;;;;;5071091;28;20047;-59
2022/07/31 05:23:55;;;;;;;6.97;5.20;;;18.10;99.90;;;;;;5071211;28;20029;-59
2022/07/31 05:26:22;;;;;;;10.57;5.47;;;18.10;99.90;;;;;;5070961;28;20524;-59
2022/07/31 05:28:48;;;;;;;7.13;5.35;;;18.10;99.90;;;;;;5071552;28;20477;-59
2022/07/31 05:31:16;;;;;;;7.80;5.65;;;18.00;99.90;;;;;;5071076;28;20033;-59
2022/07/31 05:33:42;;;;;;;8.95;5.60;;;18.00;99.90;;;;;;5070952;28;20055;-59
2022/07/31 05:36:08;;;;;;;8.82;5.35;;;18.00;99.90;;;;;;5071127;28;20032;-59
2022/07/31 05:38:34;;;;;;;8.52;5.75;;;18.00;99.90;;;;;;5071225;28;20046;-62
2022/07/31 05:40:59;;;;;;;10.20;5.68;;;18.10;99.90;;;;;;5071035;28;20385;-59
2022/07/31 05:43:25;;;;;;;9.23;6.47;;;18.20;99.90;;;;;;5071900;28;20021;-58
2022/07/31 05:45:51;;;;;;;9.25;5.72;;;18.20;99.90;;;;;;5074618;28;20044;-58
2022/07/31 05:48:17;;;;;;;8.57;5.88;;;18.30;99.90;;;;;;5074620;28;20024;-59
2022/07/31 05:50:44;;;;;;;7.60;6.18;;;18.30;99.90;;;;;;5074922;28;20021;-59
2022/07/31 05:53:12;;;;;;;6.45;5.72;;;18.30;99.90;;;;;;5074730;28;20028;-59
2022/07/31 05:55:38;;;;;;;11.75;6.45;;;18.40;99.90;;;;;;5073470;28;20115;-58
2022/07/31 05:58:04;;;;;;;11.77;6.25;;;18.40;99.90;;;;;;5074723;28;20021;-59
2022/07/31 06:00:30;;;;;;;10.05;6.13;;;18.50;99.90;;;;;;5072824;28;20061;-60
2022/07/31 06:02:58;;;;;;;9.68;5.97;;;18.60;99.90;;;;;;5073150;28;20035;-58
2022/07/31 06:05:24;;;;;;;11.25;6.47;;;18.80;99.90;;;;;;5074112;28;20029;-59
2022/07/31 06:07:51;;;;;;;7.78;5.90;;;18.90;99.90;;;;;;5074183;28;20060;-60
2022/07/31 06:10:16;;;;;;;10.98;5.80;;;18.90;99.90;;;;;;5073957;28;20035;-59
2022/07/31 06:12:42;;;;;;;7.85;6.30;;;19.10;99.90;;;;;;5074630;28;20025;-59
2022/07/31 06:15:08;;;;;;;8.85;5.78;;;19.20;99.90;;;;;;5074189;28;20036;-59
2022/07/31 06:17:33;;;;;;;8.90;5.90;;;19.30;99.90;;;;;;5073977;28;20111;-58
2022/07/31 06:19:59;;;;;;;10.07;5.82;;;19.30;99.90;;;;;;5074011;28;20036;-58
2022/07/31 06:22:25;;;;;;;8.32;6.13;;;19.30;99.90;;;;;;5074066;28;20021;-58
2022/07/31 06:24:50;;;;;;;9.23;6.03;;;19.20;99.90;;;;;;5073562;28;20367;-59
2022/07/31 06:27:16;;;;;;;11.07;6.53;;;19.20;99.90;;;;;;5073681;28;20024;-59
2022/07/31 06:29:41;;;;;;;9.00;5.93;;;19.20;99.90;;;;;;5073734;28;20540;-59
2022/07/31 06:32:07;;;;;;;9.70;6.22;;;19.10;99.90;;;;;;5073888;28;20485;-59
2022/07/31 06:34:33;;;;;;;11.35;6.40;;;19.10;99.90;;;;;;5073429;28;20370;-59
2022/07/31 06:36:59;;;;;;;7.10;5.47;;;19.20;99.90;;;;;;5073308;28;20116;-59
2022/07/31 06:39:24;;;;;;;7.82;5.72;;;19.30;99.90;;;;;;5073272;28;20495;-59
2022/07/31 06:41:50;;;;;;;7.90;5.63;;;19.30;99.90;;;;;;5073471;28;20025;-58
2022/07/31 06:44:20;;;;;;;8.70;6.03;;;19.40;99.90;;;;;;5072997;28;20070;-59
2022/07/31 06:46:48;;;;;;;7.57;5.95;;;19.30;99.90;;;;;;5073569;28;20024;-59
2022/07/31 06:49:14;;;;;;;9.88;6.10;;;19.20;99.90;;;;;;5073446;28;20027;-59
2022/07/31 06:51:40;;;;;;;8.48;5.93;;;19.20;99.90;;;;;;5073509;28;20481;-59
2022/07/31 06:54:07;;;;;;;9.05;5.88;;;19.30;99.90;;;;;;5072566;28;20036;-59
2022/07/31 06:56:34;;;;;;;12.02;6.43;;;19.30;99.90;;;;;;5073300;28;20504;-59
2022/07/31 06:59:01;;;;;;;8.18;5.85;;;19.30;99.90;;;;;;5072857;28;20052;-59
2022/07/31 07:01:27;;;;;;;8.55;5.85;;;19.40;99.90;;;;;;5073032;28;20031;-59
2022/07/31 07:03:53;;;;;;;8.10;5.85;;;19.50;99.90;;;;;;5072838;28;20103;-59
2022/07/31 07:06:19;;;;;;;8.82;5.72;;;19.60;99.90;;;;;;5072808;28;20108;-58
2022/07/31 07:08:45;;;;;;;6.97;4.47;;;20.00;99.90;;;;;;5073037;28;20385;-59
2022/07/31 07:11:10;;;;;;;6.80;4.63;;;20.70;99.90;;;;;;5072634;28;20086;-59
2022/07/31 07:13:36;;;;;;;7.03;4.40;;;21.60;99.90;;;;;;5072541;28;20028;-59
2022/07/31 07:16:02;;;;;;;6.70;4.60;;;22.00;99.90;;;;;;5072889;28;20062;-59
2022/07/31 07:18:28;;;;;;;8.80;4.25;;;22.80;99.90;;;;;;5072892;28;20471;-60
2022/07/31 07:20:53;;;;;;;6.18;4.20;;;23.50;99.90;;;;;;5072350;28;20082;-59
2022/07/31 07:23:20;;;;;;;6.47;4.05;;;23.10;99.90;;;;;;5072274;28;20385;-59
2022/07/31 07:25:46;;;;;;;5.22;4.38;;;22.70;99.90;;;;;;5072463;28;20485;-59
2022/07/31 07:28:12;;;;;;;5.80;3.83;;;23.10;99.90;;;;;;5072427;28;20081;-59
2022/07/31 07:30:38;;;;;;;5.05;3.60;;;23.30;99.90;;;;;;5072620;28;20075;-60
2022/07/31 07:33:04;;;;;;;4.68;3.65;;;23.80;99.90;;;;;;5072122;28;20474;-59
2022/07/31 07:35:30;;;;;;;5.25;3.30;;;24.70;99.90;;;;;;5072185;28;20043;-59
2022/07/31 07:37:56;;;;;;;7.47;3.35;;;25.10;99.90;;;;;;5072274;28;20474;-59
2022/07/31 07:40:23;;;;;;;5.78;3.10;;;25.10;99.90;;;;;;5071957;28;20029;-59
2022/07/31 07:42:49;;;;;;;8.07;3.42;;;24.90;99.90;;;;;;5072136;28;20535;-59
2022/07/31 07:45:15;;;;;;;5.22;3.22;;;25.00;99.90;;;;;;5071709;28;20032;-59
2022/07/31 07:47:40;;;;;;;4.63;3.20;;;25.00;99.90;;;;;;5071975;28;20108;-59
2022/07/31 07:50:08;;;;;;;5.60;3.67;;;25.20;99.90;;;;;;5072130;28;20028;-60
2022/07/31 07:52:34;;;;;;;4.50;3.25;;;25.30;99.90;;;;;;5072189;28;20470;-59
2022/07/31 07:55:00;;;;;;;6.43;3.78;;;24.70;99.90;;;;;;5072081;28;20051;-59
2022/07/31 07:57:26;;;;;;;4.50;3.40;;;24.30;99.90;;;;;;5071804;28;20481;-59
2022/07/31 07:59:52;;;;;;;4.88;3.20;;;24.10;99.90;;;;;;5071563;28;20130;-59
2022/07/31 08:02:18;;;;;;;6.75;3.33;;;24.00;99.90;;;;;;5072071;28;20024;-59
2022/07/31 08:04:44;;;;;;;7.35;3.78;;;23.90;99.90;;;;;;5071530;28;20363;-59
2022/07/31 08:07:09;;;;;;;4.05;3.63;;;23.70;99.90;;;;;;5070836;28;20085;-60
2022/07/31 08:09:36;;;;;;;6.25;3.80;;;23.70;99.90;;;;;;5071681;28;20106;-59
2022/07/31 08:12:02;;;;;;;5.30;3.58;;;24.20;99.90;;;;;;5071428;28;20077;-60
2022/07/31 08:14:28;;;;;;;4.40;3.50;;;24.50;99.90;;;;;;5071513;28;20115;-60
2022/07/31 08:16:54;;;;;;;6.53;3.47;;;25.40;99.90;;;;;;5071157;28;20533;-60
2022/07/31 08:19:20;;;;;;;6.68;3.85;;;25.80;99.90;;;;;;5071570;28;20033;-63
2022/07/31 08:21:46;;;;;;;5.97;4.05;;;25.20;99.90;;;;;;5071328;28;20028;-60
2022/07/31 08:24:15;;;;;;;4.30;3.58;;;25.00;99.90;;;;;;5071158;28;20025;-60
2022/07/31 08:29:25;;;;;;;6.18;3.60;;;23.60;99.90;;;;;;5071639;28;20335;-60
2022/07/31 08:31:51;;;;;;;4.97;3.90;;;23.80;99.90;;;;;;5071132;28;20478;-59
2022/07/31 08:34:17;;;;;;;4.13;3.72;;;24.20;99.90;;;;;;5071241;28;20150;-60
2022/07/31 08:36:43;;;;;;;6.10;3.80;;;24.70;99.90;;;;;;5071601;28;20544;-60
2022/07/31 08:39:09;;;;;;;5.13;2.90;;;25.50;99.90;;;;;;5071180;28;20111;-60
2022/07/31 08:41:37;;;;;;;6.13;3.60;;;26.30;99.90;;;;;;5071037;28;20056;-60
2022/07/31 08:44:04;;;;;;;4.47;3.45;;;26.60;99.90;;;;;;5071093;28;20027;-60
2022/07/31 08:46:37;;;;;;;4.25;3.58;;;26.30;99.90;;;;;;5069753;28;20032;-61
2022/07/31 08:49:04;;;;;;;5.40;3.47;;;26.20;99.90;;;;;;5071053;28;20043;-60
2022/07/31 08:51:39;;;;;;;6.20;3.35;;;25.90;99.90;;;;;;5071172;28;20040;-60
2022/07/31 08:54:07;;;;;;;7.43;3.60;;;26.00;99.90;;;;;;5070812;28;20028;-60
2022/07/31 08:56:34;;;;;;;4.35;3.45;;;25.10;99.90;;;;;;5071341;28;20033;-60
2022/07/31 08:59:00;;;;;;;4.97;3.60;;;25.10;99.90;;;;;;5070857;28;20040;-59
2022/07/31 09:01:26;;;;;;;4.18;3.50;;;24.90;99.90;;;;;;5070792;28;20428;-58
2022/07/31 09:03:53;;;;;;;4.55;3.60;;;25.30;99.90;;;;;;5070863;28;20027;-58
2022/07/31 09:06:19;;;;;;;4.22;3.08;;;25.80;99.90;;;;;;5070857;28;20033;-59
2022/07/31 09:08:44;;;;;;;6.35;3.60;;;26.00;99.90;;;;;;5070980;28;20043;-59
2022/07/31 09:11:12;;;;;;;4.25;3.15;;;26.40;99.90;;;;;;5071135;28;20036;-60
2022/07/31 09:13:39;;;;;;;6.40;3.40;;;26.00;99.90;;;;;;5071108;28;20508;-61
2022/07/31 09:16:05;;;;;;;5.60;3.58;;;25.20;99.90;;;;;;5070531;28;20112;-61
2022/07/31 09:18:31;;;;;;;6.22;3.95;;;24.60;99.90;;;;;;5073874;28;20028;-60
2022/07/31 09:21:04;;;;;;;6.70;4.10;;;24.10;99.90;;;;;;5074712;28;20510;-61
2022/07/31 09:23:33;;;;;;;4.82;3.70;;;24.10;99.90;;;;;;5074813;28;20103;-60
2022/07/31 09:26:04;;;;;;;5.53;3.72;;;24.20;99.90;;;;;;5074768;28;20024;-59
2022/07/31 09:28:38;;;;;;;8.30;3.53;;;24.20;99.90;;;;;;5073562;28;20029;-58
2022/07/31 09:31:06;;;;;;;8.88;3.88;;;24.10;99.90;;;;;;5074471;28;20040;-58
2022/07/31 09:33:32;;;;;;;4.40;3.40;;;24.10;99.90;;;;;;5074633;28;20149;-58
2022/07/31 09:35:58;;;;;;;5.15;3.55;;;24.20;99.90;;;;;;5074888;28;20520;-58
2022/07/31 09:38:41;;;;;;;4.45;3.38;;;24.30;99.90;;;;;;5073828;28;20032;-58
2022/07/31 09:41:17;;;;;;;5.68;3.17;;;24.60;99.90;;;;;;5074248;28;20025;-59
2022/07/31 09:43:43;;;;;;;6.40;3.67;;;24.50;99.90;;;;;;5074369;28;20501;-60
2022/07/31 09:46:09;;;;;;;9.15;3.90;;;24.00;99.90;;;;;;5074491;28;20028;-60
2022/07/31 09:48:36;;;;;;;6.13;3.53;;;23.60;99.90;;;;;;5073094;28;20516;-60
2022/07/31 09:51:06;;;;;;;4.65;3.70;;;23.30;99.90;;;;;;5074327;28;20528;-60
2022/07/31 09:53:44;;;;;;;4.18;3.78;;;23.10;99.90;;;;;;5074046;28;20047;-60
2022/07/31 09:56:11;;;;;;;7.75;3.92;;;22.90;99.90;;;;;;5072687;28;20051;-60
2022/07/31 09:58:39;;;;;;;7.45;3.90;;;22.90;99.90;;;;;;5074290;28;20064;-60
2022/07/31 10:01:07;;;;;;;7.68;3.83;;;23.00;99.90;;;;;;5073732;28;20028;-60
2022/07/31 10:03:37;;;;;;;8.30;3.42;;;23.00;99.90;;;;;;5073866;28;20021;-58
2022/07/31 10:06:05;;;;;;;4.53;3.42;;;23.10;99.90;;;;;;5072929;28;20477;-59
2022/07/31 10:08:34;;;;;;;4.43;3.28;;;23.20;99.90;;;;;;5074016;28;20032;-59
2022/07/31 10:11:01;;;;;;;6.40;3.63;;;23.40;99.90;;;;;;5073725;28;20028;-59
2022/07/31 10:13:28;;;;;;;4.80;3.10;;;23.60;99.90;;;;;;5073724;28;20082;-59
2022/07/31 10:15:58;;;;;;;3.53;2.90;;;23.80;99.90;;;;;;5073569;28;20036;-59
2022/07/31 10:18:28;;;;;;;4.90;2.72;;;24.10;99.90;;;;;;5073860;28;20028;-60
2022/07/31 10:20:54;;;;;;;5.63;2.97;;;24.50;99.90;;;;;;5072937;28;20029;-60
2022/07/31 10:23:25;;;;;;;4.82;2.45;;;24.30;99.90;;;;;;5072343;28;20513;-60
2022/07/31 10:25:55;;;;;;;4.05;2.40;;;24.40;99.90;;;;;;5073515;28;20030;-60
2022/07/31 10:28:21;;;;;;;3.47;2.58;;;24.50;99.90;;;;;;5073659;28;20027;-60
2022/07/31 10:30:48;;;;;;;4.90;2.50;;;24.60;99.90;;;;;;5072857;28;20025;-60
2022/07/31 10:33:14;;;;;;;5.70;2.30;;;25.20;99.90;;;;;;5073515;28;20028;-60
2022/07/31 10:36:07;;;;;;;6.55;2.30;;;25.10;99.90;;;;;;5073526;28;20083;-60
2022/07/31 10:38:42;;;;;;;6.20;2.25;;;25.50;99.90;;;;;;5073534;28;20032;-60
2022/07/31 10:41:24;;;;;;;3.13;2.20;;;25.50;99.90;;;;;;5073303;28;20115;-60
2022/07/31 10:43:58;;;;;;;4.53;2.22;;;25.30;99.90;;;;;;5073876;28;20373;-60
2022/07/31 10:46:32;;;;;;;6.22;2.65;;;24.80;99.90;;;;;;5073275;28;20030;-60
2022/07/31 10:48:59;;;;;;;3.13;2.38;;;24.50;99.90;;;;;;5072232;28;20020;-60
2022/07/31 10:51:25;;;;;;;4.25;2.42;;;24.40;99.90;;;;;;5073240;28;20032;-60
2022/07/31 10:53:59;;;;;;;3.72;2.10;;;24.40;99.90;;;;;;5073002;28;20029;-60
2022/07/31 10:56:25;;;;;;;5.05;1.83;;;24.80;99.90;;;;;;5073065;28;20382;-60
2022/07/31 10:58:53;;;;;;;2.50;1.50;;;25.00;99.90;;;;;;5072749;28;20029;-60
2022/07/31 11:01:19;;;;;;;3.33;1.45;;;24.90;99.90;;;;;;5072917;28;20039;-60
2022/07/31 11:03:48;;;;;;;2.88;1.55;;;25.10;99.90;;;;;;5073278;28;20066;-60
2022/07/31 11:06:15;;;;;;;2.50;1.40;;;25.40;99.90;;;;;;5072756;28;20104;-60
2022/07/31 11:08:51;;;;;;;3.72;1.98;;;25.80;99.90;;;;;;5073073;28;20025;-60
2022/07/31 11:11:17;;;;;;;2.35;1.58;;;26.20;99.90;;;;;;5072841;28;20028;-60
2022/07/31 11:13:50;;;;;;;4.75;1.60;;;25.80;99.90;;;;;;5072987;28;20537;-60
2022/07/31 11:16:16;;;;;;;2.20;1.63;;;25.40;99.90;;;;;;5072674;28;20507;-60
2022/07/31 11:18:44;;;;;;;2.47;1.25;;;25.00;99.90;;;;;;5072573;28;20017;-60
2022/07/31 11:21:10;;;;;;;2.00;1.05;;;25.80;99.90;;;;;;5072575;28;20082;-60
2022/07/31 11:23:36;;;;;;;2.83;1.02;;;26.00;99.90;;;;;;5072422;28;20032;-61
2022/07/31 11:26:06;;;;;;;3.17;1.30;;;26.40;99.90;;;;;;5072989;28;20478;-60
2022/07/31 11:28:33;;;;;;;3.72;0.98;;;26.00;99.90;;;;;;5072819;28;20020;-60
2022/07/31 11:31:01;;;;;;;4.05;1.10;;;25.60;99.90;;;;;;5072220;28;20099;-58
2022/07/31 11:33:40;;;;;;;2.00;1.00;;;24.90;99.90;;;;;;5072408;28;20016;-58
2022/07/31 11:36:22;;;;;;;1.10;1.00;;;25.10;99.90;;;;;;5072442;28;20036;-58
2022/07/31 11:38:51;;;;;;;1.20;1.00;;;25.20;99.90;;;;;;5072642;28;20477;-58
2022/07/31 11:41:20;;;;;;;1.63;1.10;;;25.30;99.90;;;;;;5071486;28;20032;-59
2022/07/31 11:43:50;;;;;;;3.13;1.23;;;25.30;99.90;;;;;;5072030;28;20028;-59
2022/07/31 11:46:36;;;;;;;4.15;1.70;;;25.40;99.90;;;;;;5070672;28;20028;-59
2022/07/31 11:49:03;;;;;;;2.08;1.40;;;24.90;99.90;;;;;;5072046;28;20028;-59
2022/07/31 11:51:29;;;;;;;2.70;1.35;;;24.70;99.90;;;;;;5071757;28;20032;-59
2022/07/31 11:53:56;;;;;;;2.65;1.58;;;24.70;99.90;;;;;;5071885;28;20036;-59
2022/07/31 11:56:23;;;;;;;1.52;1.00;;;24.90;99.90;;;;;;5071706;28;20060;-60
2022/07/31 11:58:54;;;;;;;2.53;1.00;;;25.10;99.90;;;;;;5072003;28;20260;-59
2022/07/31 12:01:27;;;;;;;2.58;1.13;;;25.30;99.90;;;;;;5071945;28;20025;-59
2022/07/31 12:03:53;;;;;;;2.42;1.00;;;25.10;99.90;;;;;;5072060;28;20035;-59
2022/07/31 12:06:20;;;;;;;2.53;0.93;;;24.90;99.90;;;;;;5071588;28;20389;-59
2022/07/31 12:08:47;;;;;;;1.75;0.90;;;24.70;99.90;;;;;;5072000;28;20020;-60
2022/07/31 12:11:15;;;;;;;3.03;1.15;;;24.90;99.90;;;;;;5072290;28;20039;-60
2022/07/31 12:13:46;;;;;;;2.65;0.93;;;25.00;99.90;;;;;;5071779;28;20524;-59
2022/07/31 12:16:11;;;;;;;2.28;1.10;;;25.10;99.90;;;;;;5071773;28;20074;-60
2022/07/31 12:18:59;;;;;;;2.63;1.02;;;25.20;99.90;;;;;;5071998;28;20473;-60
2022/07/31 12:21:37;;;;;;;1.73;0.90;;;26.20;99.90;;;;;;5071568;28;20430;-60
2022/07/31 12:24:12;;;;;;;2.17;1.00;;;26.20;99.90;;;;;;5071501;28;20359;-60
2022/07/31 12:26:42;;;;;;;1.25;0.90;;;25.50;99.90;;;;;;5071759;28;20060;-60
2022/07/31 12:29:10;;;;;;;0.93;0.82;;;25.40;99.90;;;;;;5070502;28;20040;-60
2022/07/31 12:31:51;;;;;;;2.03;1.00;;;25.20;99.90;;;;;;5071160;28;20036;-60
2022/07/31 12:34:27;;;;;;;1.90;0.90;;;25.10;99.90;;;;;;5070401;28;20020;-61
2022/07/31 12:37:04;;;;;;;1.75;1.00;;;25.00;99.90;;;;;;5071140;28;20060;-61
2022/07/31 12:39:33;;;;;;;4.38;0.98;;;25.20;99.90;;;;;;5071459;28;20449;-60
2022/07/31 12:41:59;;;;;;;3.97;0.90;;;25.50;99.90;;;;;;5071199;28;20029;-60
2022/07/31 12:44:24;;;;;;;1.65;0.80;;;26.30;99.90;;;;;;5071273;28;20036;-61
2022/07/31 12:46:50;;;;;;;3.15;0.68;;;27.40;99.90;;;;;;5070928;28;20074;-61
2022/07/31 12:49:16;;;;;;;3.38;1.10;;;27.40;99.90;;;;;;5071242;28;20077;-61
2022/07/31 12:51:42;;;;;;;3.20;1.00;;;26.80;99.90;;;;;;5070830;28;20036;-62